Time;durP1;ratioP1;P1;durP2;ratioP2;P2;SDS_P1;SDS_P2;PMS_P1;PMS_P2;Temp;Humidity;BMP_temperature;BMP_pressure;BME280_temperature;BME280_humidity;BME280_pressure;Samples;Min_cycle;Max_cycle;Signal;HPM_P1;HPM_P2
2022/11/28 00:01:34;;;;;;;16.08;10.48;;;7.80;99.90;;;;;;4992870;28;20806;-75
2022/11/28 00:04:00;;;;;;;16.30;10.70;;;7.90;99.70;;;;;;4996215;28;20391;-73
2022/11/28 00:06:26;;;;;;;15.90;9.60;;;7.90;99.10;;;;;;4993765;28;20467;-74
2022/11/28 00:08:52;;;;;;;15.05;9.55;;;7.90;97.70;;;;;;4993565;28;20874;-75
2022/11/28 00:11:18;;;;;;;15.00;10.07;;;7.90;96.70;;;;;;4992657;28;20395;-75
2022/11/28 00:13:43;;;;;;;14.68;9.80;;;7.80;98.30;;;;;;4994283;28;20478;-74
2022/11/28 00:16:14;;;;;;;14.20;9.88;;;7.80;98.00;;;;;;4994428;28;20397;-74
2022/11/28 00:18:40;;;;;;;14.35;9.43;;;7.80;99.70;;;;;;4994044;28;20417;-74
2022/11/28 00:21:09;;;;;;;13.77;9.50;;;7.90;98.30;;;;;;4994802;28;20406;-74
2022/11/28 00:23:35;;;;;;;14.48;10.00;;;7.90;96.40;;;;;;4994159;28;20394;-74
2022/11/28 00:26:04;;;;;;;11.88;9.52;;;7.90;95.50;;;;;;4994046;28;20414;-74
2022/11/28 00:28:29;;;;;;;11.50;8.68;;;7.90;95.10;;;;;;4993686;28;20402;-74
2022/11/28 00:30:55;;;;;;;15.03;9.90;;;7.90;93.30;;;;;;4991558;28;20387;-74
2022/11/28 00:33:21;;;;;;;15.57;10.17;;;7.90;94.30;;;;;;4992145;28;20401;-73
2022/11/28 00:35:47;;;;;;;16.50;9.90;;;7.90;95.90;;;;;;4992354;28;20430;-74
2022/11/28 00:38:12;;;;;;;15.68;10.20;;;7.90;95.00;;;;;;4992561;28;20485;-73
2022/11/28 00:40:38;;;;;;;15.70;10.45;;;7.90;96.00;;;;;;4992388;28;20397;-73
2022/11/28 00:43:03;;;;;;;14.65;9.57;;;7.90;97.30;;;;;;4990335;28;20419;-73
2022/11/28 00:45:29;;;;;;;17.23;11.07;;;7.90;96.70;;;;;;4993045;28;20387;-74
2022/11/28 00:47:54;;;;;;;14.77;10.10;;;7.90;96.40;;;;;;4991981;28;20582;-75
2022/11/28 00:50:20;;;;;;;14.65;9.30;;;7.90;98.40;;;;;;4991822;28;20444;-75
2022/11/28 00:52:45;;;;;;;17.48;10.57;;;7.90;96.20;;;;;;4991447;28;20481;-75
2022/11/28 00:55:11;;;;;;;15.98;10.55;;;7.90;96.80;;;;;;4991863;28;20485;-75
2022/11/28 00:57:37;;;;;;;15.80;9.20;;;7.90;97.40;;;;;;4992172;28;20828;-75
2022/11/28 01:00:04;;;;;;;15.60;10.50;;;7.80;97.40;;;;;;4991859;28;20409;-74
2022/11/28 01:02:30;;;;;;;16.52;11.20;;;7.90;98.70;;;;;;4991284;28;20478;-75
2022/11/28 01:04:55;;;;;;;16.48;9.90;;;7.90;98.50;;;;;;4991799;28;20399;-73
2022/11/28 01:07:21;;;;;;;13.80;9.70;;;7.90;99.20;;;;;;4991755;28;20386;-73
2022/11/28 01:09:47;;;;;;;18.80;9.97;;;7.90;99.90;;;;;;4991355;28;20886;-75
2022/11/28 01:12:12;;;;;;;18.30;11.00;;;7.90;99.90;;;;;;4991355;28;20390;-75
2022/11/28 01:14:38;;;;;;;14.60;10.47;;;7.90;99.90;;;;;;4991811;28;20397;-74
2022/11/28 01:17:03;;;;;;;15.10;9.50;;;8.00;99.90;;;;;;4991788;28;20465;-75
2022/11/28 01:19:29;;;;;;;18.30;11.20;;;7.90;99.90;;;;;;4993607;28;20895;-74
2022/11/28 01:21:54;;;;;;;16.03;10.70;;;7.90;99.90;;;;;;4991869;28;20415;-75
2022/11/28 01:24:20;;;;;;;15.80;9.53;;;7.90;99.90;;;;;;4993346;28;20391;-75
2022/11/28 01:26:45;;;;;;;16.33;10.93;;;8.00;99.90;;;;;;4992594;28;20460;-74
2022/11/28 01:29:11;;;;;;;13.40;10.00;;;8.00;99.80;;;;;;4993762;28;20813;-75
2022/11/28 01:31:37;;;;;;;13.30;9.50;;;8.00;99.90;;;;;;4991324;28;20498;-74
2022/11/28 01:34:03;;;;;;;15.55;9.73;;;8.00;99.70;;;;;;4992156;28;20919;-74
2022/11/28 01:36:29;;;;;;;14.68;9.32;;;7.90;98.50;;;;;;4991601;28;20426;-74
2022/11/28 01:38:55;;;;;;;15.48;9.93;;;8.00;97.90;;;;;;4992851;28;20969;-75
2022/11/28 01:41:23;;;;;;;16.70;10.33;;;7.90;99.90;;;;;;4992484;28;20456;-76
2022/11/28 01:44:27;;;;;;;16.70;10.82;;;8.00;97.20;;;;;;4991837;28;20926;-75
2022/11/28 01:46:53;;;;;;;13.23;9.85;;;8.00;99.00;;;;;;4992536;28;20386;-76
2022/11/28 01:49:37;;;;;;;14.00;10.10;;;8.00;96.90;;;;;;4991873;28;20390;-76
2022/11/28 01:52:08;;;;;;;18.80;10.35;;;8.10;96.50;;;;;;4991324;28;20811;-76
2022/11/28 01:54:36;;;;;;;15.05;9.50;;;8.10;94.00;;;;;;4992846;28;20422;-75
2022/11/28 01:57:06;;;;;;;15.45;10.00;;;8.10;94.30;;;;;;4994668;28;20469;-75
2022/11/28 01:59:37;;;;;;;15.02;10.05;;;8.10;93.50;;;;;;4993306;28;20418;-75
2022/11/28 02:02:07;;;;;;;15.73;9.93;;;8.00;93.40;;;;;;4992464;28;20391;-74
2022/11/28 02:04:33;;;;;;;14.87;10.03;;;8.00;95.10;;;;;;4992141;28;20511;-74
2022/11/28 02:06:59;;;;;;;17.90;9.45;;;8.00;96.00;;;;;;4992505;28;20392;-75
2022/11/28 02:09:25;;;;;;;16.80;10.50;;;8.10;97.00;;;;;;4993180;28;21083;-75
2022/11/28 02:11:59;;;;;;;16.57;10.43;;;8.10;99.90;;;;;;4989995;28;20469;-75
2022/11/28 02:15:02;;;;;;;14.95;10.35;;;8.00;98.70;;;;;;4990800;28;20421;-75
2022/11/28 02:18:05;;;;;;;17.90;11.10;;;7.90;99.90;;;;;;4991835;28;20481;-74
2022/11/28 02:20:42;;;;;;;16.85;9.88;;;7.90;99.90;;;;;;4991837;28;20449;-75
2022/11/28 02:23:40;;;;;;;16.67;9.02;;;7.90;99.90;;;;;;4995072;28;20685;-76
2022/11/28 02:26:39;;;;;;;15.57;10.13;;;7.80;99.10;;;;;;4994457;28;20430;-75
2022/11/28 02:29:25;;;;;;;13.88;9.50;;;7.80;99.90;;;;;;4988777;28;20803;-75
2022/11/28 02:32:20;;;;;;;13.38;9.73;;;7.80;98.00;;;;;;4994654;28;20402;-75
2022/11/28 02:35:11;;;;;;;14.27;10.10;;;7.70;99.20;;;;;;4995710;28;20398;-76
2022/11/28 02:38:01;;;;;;;11.25;9.10;;;7.80;97.90;;;;;;4996439;28;20720;-76
2022/11/28 02:40:38;;;;;;;15.80;10.40;;;7.90;95.00;;;;;;4995289;28;20394;-75
2022/11/28 02:43:42;;;;;;;15.40;10.38;;;7.90;95.00;;;;;;4995770;28;20397;-75
2022/11/28 02:46:21;;;;;;;14.95;10.40;;;8.00;93.00;;;;;;4993635;28;20938;-76
2022/11/28 02:49:02;;;;;;;14.60;9.90;;;7.90;94.80;;;;;;4995321;28;20402;-76
2022/11/28 02:51:33;;;;;;;18.75;12.38;;;7.90;94.30;;;;;;4993154;28;20398;-76
2022/11/28 02:54:01;;;;;;;20.08;12.13;;;7.90;97.00;;;;;;5036330;23;20445;-78
2022/11/28 02:56:26;;;;;;;18.90;11.97;;;7.90;98.00;;;;;;5024286;28;21002;-77
2022/11/28 02:58:52;;;;;;;17.93;11.87;;;7.90;98.20;;;;;;5017049;28;20433;-77
2022/11/28 03:01:32;;;;;;;14.23;10.33;;;8.00;99.50;;;;;;5020870;28;20400;-78
2022/11/28 03:04:21;;;;;;;18.92;12.48;;;8.00;97.30;;;;;;5025494;28;20393;-77
2022/11/28 03:07:00;;;;;;;18.95;12.20;;;7.90;99.00;;;;;;5017630;28;20815;-78
2022/11/28 03:09:44;;;;;;;21.52;12.18;;;7.90;97.40;;;;;;5033923;28;20393;-78
2022/11/28 03:12:35;;;;;;;20.85;12.93;;;7.90;97.70;;;;;;5031135;28;20389;-77
2022/11/28 03:15:06;;;;;;;16.10;11.60;;;8.00;99.30;;;;;;5036647;28;20412;-77
2022/11/28 03:18:06;;;;;;;18.60;12.15;;;7.90;99.90;;;;;;5031687;28;20412;-78
2022/11/28 03:20:54;;;;;;;22.50;12.25;;;7.90;99.90;;;;;;5032399;28;20417;-77
2022/11/28 03:23:24;;;;;;;20.75;13.75;;;7.80;99.90;;;;;;5036696;28;20444;-79
2022/11/28 03:25:59;;;;;;;19.52;13.30;;;7.80;99.90;;;;;;5032127;28;20393;-78
2022/11/28 03:28:28;;;;;;;19.70;12.52;;;7.80;99.90;;;;;;5035806;28;20456;-78
2022/11/28 03:31:01;;;;;;;16.40;11.95;;;7.80;99.90;;;;;;5030379;28;20415;-78
2022/11/28 03:33:32;;;;;;;17.55;11.95;;;7.80;99.90;;;;;;5021435;28;20451;-78
2022/11/28 03:36:03;;;;;;;17.83;12.50;;;7.70;99.90;;;;;;5037883;28;20392;-79
2022/11/28 03:38:35;;;;;;;19.42;12.27;;;7.80;99.90;;;;;;5021479;28;20411;-78
2022/11/28 03:41:06;;;;;;;18.48;12.63;;;7.80;99.90;;;;;;5023250;28;20477;-77
2022/11/28 03:43:37;;;;;;;18.90;13.03;;;7.70;99.90;;;;;;5021677;28;20703;-77
2022/11/28 03:46:08;;;;;;;17.30;11.85;;;7.70;99.90;;;;;;5025959;28;20413;-77
2022/11/28 03:48:43;;;;;;;22.15;12.75;;;7.70;99.90;;;;;;5021739;28;20447;-78
2022/11/28 03:51:16;;;;;;;18.98;12.23;;;7.80;99.90;;;;;;5023256;28;20387;-78
2022/11/28 03:54:03;;;;;;;20.45;13.07;;;7.80;99.90;;;;;;5016398;28;21088;-79
2022/11/28 03:56:32;;;;;;;22.23;14.43;;;7.70;99.90;;;;;;5019196;28;20806;-79
2022/11/28 03:59:11;;;;;;;19.08;12.50;;;7.90;99.90;;;;;;5021432;28;20411;-78
2022/11/28 04:01:53;;;;;;;21.58;12.35;;;7.80;99.90;;;;;;5018254;28;20455;-77
2022/11/28 04:04:30;;;;;;;18.58;13.18;;;7.80;99.90;;;;;;5019392;28;20380;-78
2022/11/28 04:07:25;;;;;;;17.08;11.60;;;7.70;99.90;;;;;;5021373;28;20434;-79
2022/11/28 04:10:19;;;;;;;21.23;12.88;;;7.70;99.90;;;;;;5011653;28;20397;-79
2022/11/28 04:13:12;;;;;;;19.85;12.55;;;7.60;99.90;;;;;;5018884;28;20396;-78
2022/11/28 04:15:47;;;;;;;21.27;12.73;;;7.60;99.90;;;;;;5019815;28;20389;-78
2022/11/28 04:18:26;;;;;;;18.38;12.20;;;7.60;99.90;;;;;;5020201;28;20419;-78
2022/11/28 04:21:21;;;;;;;24.05;13.10;;;7.60;99.90;;;;;;5017669;28;20392;-76
2022/11/28 04:23:49;;;;;;;16.42;11.68;;;7.80;99.90;;;;;;5015265;28;20846;-77
2022/11/28 04:26:32;;;;;;;17.07;11.63;;;7.70;99.90;;;;;;5031125;28;20451;-77
2022/11/28 04:29:01;;;;;;;19.23;11.63;;;7.70;99.90;;;;;;5019848;28;20805;-78
2022/11/28 04:31:28;;;;;;;16.45;11.55;;;7.70;99.90;;;;;;5033789;28;20423;-78
2022/11/28 04:33:58;;;;;;;17.23;11.70;;;7.70;99.30;;;;;;5019242;28;20404;-78
2022/11/28 04:36:25;;;;;;;18.20;11.35;;;7.70;98.60;;;;;;5022399;28;20385;-78
2022/11/28 04:38:55;;;;;;;19.20;11.33;;;7.70;99.30;;;;;;5029293;28;20420;-77
2022/11/28 04:41:44;;;;;;;16.60;11.23;;;7.70;99.90;;;;;;5017439;28;20811;-77
2022/11/28 04:44:24;;;;;;;16.63;10.73;;;7.70;99.70;;;;;;5036386;28;20395;-76
2022/11/28 04:46:52;;;;;;;18.83;11.65;;;7.70;96.40;;;;;;5026430;28;20410;-77
2022/11/28 04:49:18;;;;;;;15.80;10.65;;;7.70;98.20;;;;;;5026638;28;20403;-79
2022/11/28 04:51:58;;;;;;;20.13;12.20;;;7.70;98.60;;;;;;5020165;28;20388;-77
2022/11/28 04:54:30;;;;;;;14.45;10.50;;;7.70;98.60;;;;;;5027491;28;20389;-77
2022/11/28 04:57:13;;;;;;;17.20;11.40;;;7.70;96.90;;;;;;5020968;28;20389;-78
2022/11/28 04:59:40;;;;;;;17.08;11.60;;;7.80;95.30;;;;;;5025180;28;20405;-78
2022/11/28 05:02:07;;;;;;;19.08;12.93;;;7.70;94.50;;;;;;5025778;28;20429;-77
2022/11/28 05:04:35;;;;;;;15.77;11.20;;;7.70;97.60;;;;;;5020148;28;20472;-78
2022/11/28 05:07:06;;;;;;;16.65;12.60;;;7.70;97.00;;;;;;5020356;28;20385;-78
2022/11/28 05:09:32;;;;;;;19.70;12.70;;;7.70;98.00;;;;;;5022758;28;20392;-78
2022/11/28 05:11:58;;;;;;;17.50;11.80;;;7.80;98.20;;;;;;5020745;28;20396;-78
2022/11/28 05:14:23;;;;;;;18.80;12.30;;;7.80;97.80;;;;;;5018962;28;20852;-78
2022/11/28 05:16:49;;;;;;;19.33;12.53;;;7.70;98.30;;;;;;5020389;28;20455;-77
2022/11/28 05:19:15;;;;;;;18.52;11.93;;;7.80;99.10;;;;;;5020903;28;20511;-78
2022/11/28 05:21:41;;;;;;;19.85;12.77;;;7.70;98.80;;;;;;5021513;28;20397;-77
2022/11/28 05:24:07;;;;;;;20.23;12.27;;;7.70;99.90;;;;;;5030507;28;20381;-78
2022/11/28 05:26:34;;;;;;;18.00;12.13;;;7.70;98.90;;;;;;5018014;28;20441;-78
2022/11/28 05:29:00;;;;;;;18.70;13.40;;;7.70;98.20;;;;;;5040454;28;20395;-78
2022/11/28 05:31:26;;;;;;;16.95;12.30;;;7.70;99.10;;;;;;5018568;28;20396;-77
2022/11/28 05:33:53;;;;;;;17.02;11.95;;;7.70;99.90;;;;;;5020443;28;20423;-77
2022/11/28 05:36:19;;;;;;;17.00;12.77;;;7.70;98.60;;;;;;5019523;28;20399;-78
2022/11/28 05:38:45;;;;;;;19.48;11.50;;;7.70;95.80;;;;;;5017927;28;20396;-77
2022/11/28 05:41:25;;;;;;;19.58;12.25;;;7.70;96.40;;;;;;5013647;28;20393;-78
2022/11/28 05:43:51;;;;;;;20.13;13.50;;;7.60;94.00;;;;;;5017331;28;20391;-78
2022/11/28 05:46:17;;;;;;;20.40;12.77;;;7.60;97.60;;;;;;5017436;28;20404;-77
2022/11/28 05:48:43;;;;;;;17.75;12.45;;;7.60;97.90;;;;;;5018368;28;20452;-77
2022/11/28 05:51:08;;;;;;;16.75;11.85;;;7.70;98.50;;;;;;5015216;28;20427;-78
2022/11/28 05:53:34;;;;;;;18.10;13.10;;;7.70;97.10;;;;;;5027085;28;20396;-78
2022/11/28 05:56:09;;;;;;;17.70;12.10;;;7.70;95.90;;;;;;5031341;28;20480;-77
2022/11/28 05:58:35;;;;;;;17.63;12.82;;;7.70;94.50;;;;;;5030521;28;20401;-78
2022/11/28 06:01:12;;;;;;;21.55;12.90;;;7.70;95.70;;;;;;5033701;28;20404;-78
2022/11/28 06:03:38;;;;;;;17.10;12.30;;;7.60;98.40;;;;;;5031194;28;20504;-79
2022/11/28 06:06:06;;;;;;;20.83;13.32;;;7.60;97.80;;;;;;5028132;28;20384;-77
2022/11/28 06:08:32;;;;;;;20.95;12.80;;;7.60;97.60;;;;;;5036960;28;20407;-78
2022/11/28 06:10:58;;;;;;;15.52;11.65;;;7.70;96.40;;;;;;5033266;28;20746;-77
2022/11/28 06:13:24;;;;;;;16.90;13.00;;;7.70;94.70;;;;;;5031599;28;20373;-78
2022/11/28 06:15:50;;;;;;;17.20;12.00;;;7.70;95.00;;;;;;5038717;28;20408;-77
2022/11/28 06:18:15;;;;;;;18.67;13.03;;;7.60;96.40;;;;;;5030446;28;20428;-78
2022/11/28 06:20:41;;;;;;;19.63;12.50;;;7.60;98.20;;;;;;5021052;28;20396;-76
2022/11/28 06:23:07;;;;;;;19.83;12.80;;;7.60;97.00;;;;;;5019953;28;20848;-77
2022/11/28 06:25:32;;;;;;;17.53;12.97;;;7.60;94.80;;;;;;5024225;28;20446;-77
2022/11/28 06:27:58;;;;;;;17.87;12.67;;;7.50;94.70;;;;;;5022915;28;20393;-78
2022/11/28 06:30:23;;;;;;;17.63;13.00;;;7.50;96.80;;;;;;5024832;28;20404;-78
2022/11/28 06:32:49;;;;;;;20.65;12.98;;;7.50;97.00;;;;;;5019154;28;20397;-78
2022/11/28 06:35:15;;;;;;;19.35;13.90;;;7.50;97.60;;;;;;5034470;28;20381;-78
2022/11/28 06:37:40;;;;;;;18.67;13.23;;;7.50;98.40;;;;;;5018204;28;20403;-78
2022/11/28 06:40:06;;;;;;;20.30;13.50;;;7.60;95.60;;;;;;5021714;28;21004;-77
2022/11/28 06:42:36;;;;;;;20.35;12.93;;;7.60;96.90;;;;;;5021992;28;20385;-78
2022/11/28 06:45:03;;;;;;;18.17;11.93;;;7.70;93.70;;;;;;5028304;28;20428;-77
2022/11/28 06:47:29;;;;;;;23.02;13.98;;;7.70;93.20;;;;;;5027010;28;20392;-77
2022/11/28 06:49:55;;;;;;;18.15;12.50;;;7.60;93.70;;;;;;5022416;28;20397;-77
2022/11/28 06:52:20;;;;;;;18.50;12.40;;;7.60;92.70;;;;;;5023794;28;20400;-77
2022/11/28 06:54:46;;;;;;;16.13;12.25;;;7.60;91.90;;;;;;5018913;28;20789;-77
2022/11/28 06:57:12;;;;;;;17.38;12.57;;;7.60;93.30;;;;;;5023918;28;20392;-78
2022/11/28 06:59:38;;;;;;;16.60;11.77;;;7.60;93.10;;;;;;5022790;28;20408;-79
2022/11/28 07:02:05;;;;;;;17.53;12.40;;;7.60;93.20;;;;;;5017324;28;20392;-77
2022/11/28 07:04:30;;;;;;;17.35;12.88;;;7.60;93.70;;;;;;5017075;28;20419;-79
2022/11/28 07:06:56;;;;;;;20.00;12.70;;;7.60;92.20;;;;;;5016698;28;20389;-77
2022/11/28 07:09:21;;;;;;;17.48;12.10;;;7.60;90.80;;;;;;5019773;28;20881;-78
2022/11/28 07:11:47;;;;;;;17.77;12.85;;;7.60;90.80;;;;;;5016731;28;20389;-76
2022/11/28 07:14:13;;;;;;;19.23;13.05;;;7.70;92.40;;;;;;5018624;28;20397;-78
2022/11/28 07:16:38;;;;;;;19.98;13.45;;;7.70;91.80;;;;;;5020173;28;20397;-78
2022/11/28 07:19:04;;;;;;;17.53;12.07;;;7.70;90.00;;;;;;5019645;28;20501;-78
2022/11/28 07:21:30;;;;;;;16.92;12.50;;;7.70;87.90;;;;;;5019479;28;20389;-77
2022/11/28 07:23:58;;;;;;;20.80;12.80;;;7.80;87.30;;;;;;5022954;28;20397;-77
2022/11/28 07:26:24;;;;;;;18.70;13.10;;;7.90;86.60;;;;;;5024314;28;20393;-77
2022/11/28 07:28:50;;;;;;;18.00;13.25;;;7.90;86.20;;;;;;5021233;28;20403;-78
2022/11/28 07:31:19;;;;;;;19.00;12.63;;;7.90;88.50;;;;;;5021037;28;20387;-79
2022/11/28 07:33:47;;;;;;;22.70;13.50;;;7.90;87.50;;;;;;5024960;28;20384;-78
2022/11/28 07:36:14;;;;;;;18.95;12.48;;;7.90;85.60;;;;;;5023961;28;20397;-77
2022/11/28 07:38:40;;;;;;;19.33;13.10;;;7.90;86.30;;;;;;5025212;28;20434;-77
2022/11/28 07:41:09;;;;;;;18.35;12.20;;;7.90;87.60;;;;;;5025502;28;20400;-78
2022/11/28 07:43:35;;;;;;;21.70;12.88;;;7.90;85.30;;;;;;5024258;28;20397;-77
2022/11/28 07:46:06;;;;;;;17.90;13.10;;;7.90;84.40;;;;;;5025279;28;20385;-77
2022/11/28 07:48:32;;;;;;;22.88;13.80;;;8.00;85.60;;;;;;5023062;28;20398;-78
2022/11/28 07:50:57;;;;;;;20.05;13.00;;;7.90;85.40;;;;;;5043638;28;20392;-78
2022/11/28 07:53:23;;;;;;;18.00;12.93;;;7.90;85.20;;;;;;5024382;28;20431;-79
2022/11/28 07:55:48;;;;;;;20.37;12.80;;;8.00;84.50;;;;;;5024959;28;20417;-79
2022/11/28 07:58:14;;;;;;;18.97;12.83;;;7.90;85.50;;;;;;5022972;28;20484;-78
2022/11/28 08:00:40;;;;;;;18.33;13.73;;;8.00;84.60;;;;;;5025484;28;20397;-77
2022/11/28 08:03:05;;;;;;;22.27;13.83;;;8.00;83.70;;;;;;5024792;28;20442;-79
2022/11/28 08:05:32;;;;;;;18.50;12.67;;;8.10;83.00;;;;;;5039158;28;20397;-77
2022/11/28 08:07:57;;;;;;;19.15;13.70;;;8.10;82.10;;;;;;5021989;28;20464;-78
2022/11/28 08:10:23;;;;;;;19.33;13.53;;;8.00;82.80;;;;;;5023029;28;20433;-77
2022/11/28 08:12:49;;;;;;;18.83;13.83;;;8.00;82.90;;;;;;5028094;28;20397;-79
2022/11/28 08:15:14;;;;;;;19.73;12.63;;;8.10;82.70;;;;;;5027100;28;20457;-80
2022/11/28 08:17:40;;;;;;;18.93;12.73;;;8.20;79.60;;;;;;5019290;28;20400;-77
2022/11/28 08:20:06;;;;;;;16.27;12.20;;;8.30;77.00;;;;;;5023805;28;20428;-78
2022/11/28 08:22:32;;;;;;;19.77;13.40;;;8.20;79.20;;;;;;5023478;28;20397;-79
2022/11/28 08:24:57;;;;;;;19.20;13.00;;;8.30;79.20;;;;;;5024280;28;20451;-78
2022/11/28 08:27:23;;;;;;;18.77;11.45;;;8.30;82.00;;;;;;5021438;28;20468;-78
2022/11/28 08:29:49;;;;;;;16.30;12.10;;;8.30;77.40;;;;;;5021136;28;20400;-78
2022/11/28 08:32:14;;;;;;;19.40;12.55;;;8.30;79.90;;;;;;5018903;28;20476;-79
2022/11/28 08:34:40;;;;;;;17.45;12.73;;;8.40;80.70;;;;;;5020514;28;20388;-77
2022/11/28 08:37:05;;;;;;;20.25;13.18;;;8.40;77.60;;;;;;5023323;28;20393;-79
2022/11/28 08:39:32;;;;;;;21.13;14.20;;;8.40;76.20;;;;;;5021435;28;20401;-77
2022/11/28 08:41:58;;;;;;;23.27;16.27;;;8.40;76.50;;;;;;5022454;28;20415;-77
2022/11/28 08:44:25;;;;;;;22.73;16.30;;;8.40;77.10;;;;;;5026979;28;20388;-76
2022/11/28 08:46:51;;;;;;;24.05;18.00;;;8.40;78.70;;;;;;5029149;28;20389;-76
2022/11/28 08:49:17;;;;;;;25.55;19.30;;;8.40;77.60;;;;;;5028267;28;20900;-78
2022/11/28 08:51:42;;;;;;;26.80;19.37;;;8.30;78.00;;;;;;5022505;28;20487;-78
2022/11/28 08:54:08;;;;;;;28.03;21.37;;;8.30;77.50;;;;;;5026697;23;20443;-71
2022/11/28 08:56:34;;;;;;;27.27;20.47;;;8.30;79.10;;;;;;5011932;28;20381;-73
2022/11/28 08:59:00;;;;;;;31.60;21.10;;;8.50;77.60;;;;;;5014005;28;20441;-72
2022/11/28 09:01:26;;;;;;;32.50;20.83;;;8.50;76.40;;;;;;5015976;28;20384;-71
2022/11/28 09:03:53;;;;;;;29.50;21.13;;;8.40;77.50;;;;;;5014701;28;20388;-73
2022/11/28 09:06:20;;;;;;;26.30;20.92;;;8.50;76.30;;;;;;5013625;28;20384;-73
2022/11/28 09:08:46;;;;;;;29.55;22.38;;;8.50;76.20;;;;;;5038888;28;20396;-72
2022/11/28 09:11:14;;;;;;;31.67;23.37;;;8.50;76.30;;;;;;5030112;28;20468;-71
2022/11/28 09:13:40;;;;;;;28.65;21.50;;;8.60;76.30;;;;;;5016295;28;20392;-73
2022/11/28 09:16:06;;;;;;;34.08;24.48;;;8.60;75.70;;;;;;5012279;28;20491;-71
2022/11/28 09:18:32;;;;;;;33.08;24.55;;;8.50;76.40;;;;;;5012297;28;20478;-71
2022/11/28 09:21:00;;;;;;;35.88;25.70;;;8.60;77.50;;;;;;5011520;28;20789;-72
2022/11/28 09:23:26;;;;;;;32.78;24.35;;;8.60;76.70;;;;;;5012175;28;20385;-72
2022/11/28 09:25:51;;;;;;;33.83;25.75;;;8.50;77.40;;;;;;5026810;28;20723;-73
2022/11/28 09:28:17;;;;;;;31.30;23.07;;;8.50;79.80;;;;;;5011461;28;20395;-72
2022/11/28 09:30:42;;;;;;;31.50;23.33;;;8.60;76.70;;;;;;5011150;28;20443;-72
2022/11/28 09:33:08;;;;;;;32.03;22.17;;;8.50;76.50;;;;;;5012091;28;20411;-72
2022/11/28 09:35:36;;;;;;;30.58;22.35;;;8.50;77.30;;;;;;5011709;28;20764;-70
2022/11/28 09:38:02;;;;;;;30.97;22.87;;;8.50;76.80;;;;;;5011134;28;20484;-72
2022/11/28 09:40:35;;;;;;;28.30;22.17;;;8.60;76.30;;;;;;5011522;28;20630;-70
2022/11/28 09:43:03;;;;;;;31.73;22.38;;;8.70;77.30;;;;;;5010749;28;20397;-72
2022/11/28 09:45:31;;;;;;;28.00;19.90;;;8.60;77.30;;;;;;5010320;28;20738;-71
2022/11/28 09:48:17;;;;;;;24.20;18.23;;;8.70;77.20;;;;;;5011276;28;20397;-73
2022/11/28 09:50:43;;;;;;;29.38;18.40;;;8.70;77.30;;;;;;5010167;28;20900;-73
2022/11/28 09:53:23;;;;;;;23.92;17.70;;;8.70;78.10;;;;;;5010453;28;20405;-73
2022/11/28 09:56:02;;;;;;;24.63;16.58;;;8.70;77.70;;;;;;5011255;28;20773;-73
2022/11/28 09:58:42;;;;;;;23.05;16.00;;;8.80;77.40;;;;;;5012088;28;20896;-71
2022/11/28 10:01:20;;;;;;;21.58;15.05;;;8.70;77.90;;;;;;5011318;28;20389;-72
2022/11/28 10:03:52;;;;;;;23.25;15.63;;;8.70;79.20;;;;;;5011761;28;20440;-72
2022/11/28 10:06:37;;;;;;;21.42;15.00;;;8.70;80.70;;;;;;5011684;28;20443;-73
2022/11/28 10:09:02;;;;;;;24.63;14.95;;;8.80;78.40;;;;;;5012349;28;20397;-71
2022/11/28 10:11:31;;;;;;;22.20;15.30;;;8.80;79.00;;;;;;5013576;28;20435;-72
2022/11/28 10:14:21;;;;;;;20.15;14.85;;;8.80;79.10;;;;;;5011937;28;20403;-72
2022/11/28 10:17:05;;;;;;;22.23;13.65;;;8.90;79.00;;;;;;5010680;28;20389;-72
2022/11/28 10:20:04;;;;;;;20.92;13.70;;;9.00;79.30;;;;;;5011350;28;20408;-70
2022/11/28 10:22:56;;;;;;;19.63;13.40;;;9.10;79.60;;;;;;5010635;28;20467;-71
2022/11/28 10:25:28;;;;;;;24.10;14.40;;;9.10;79.10;;;;;;5011160;28;20385;-70
2022/11/28 10:27:55;;;;;;;26.33;15.88;;;9.10;79.50;;;;;;5011191;28;20460;-73
2022/11/28 10:30:24;;;;;;;26.80;14.35;;;9.20;79.90;;;;;;5010720;28;20389;-72
2022/11/28 10:33:00;;;;;;;23.27;13.95;;;9.30;79.90;;;;;;5010357;28;20427;-71
2022/11/28 10:35:45;;;;;;;23.35;15.05;;;9.30;80.00;;;;;;5010795;28;20388;-71
2022/11/28 10:38:12;;;;;;;21.33;12.88;;;9.40;77.90;;;;;;5012678;28;20388;-73
2022/11/28 10:40:54;;;;;;;17.70;13.30;;;9.40;78.10;;;;;;5012654;28;20921;-71
2022/11/28 10:43:38;;;;;;;21.73;13.32;;;9.40;79.00;;;;;;5017583;28;20392;-71
2022/11/28 10:47:14;;;;;;;22.27;14.10;;;9.40;79.60;;;;;;5015500;28;20381;-70
2022/11/28 10:50:03;;;;;;;22.10;14.00;;;9.50;78.70;;;;;;4961211;28;20399;-73
2022/11/28 10:52:40;;;;;;;21.65;14.45;;;9.50;77.10;;;;;;4991675;28;20799;-72
2022/11/28 10:55:41;;;;;;;19.92;13.30;;;9.70;76.10;;;;;;5012165;28;20389;-72
2022/11/28 10:58:19;;;;;;;18.17;13.05;;;9.60;75.80;;;;;;5014407;28;20865;-71
2022/11/28 11:00:48;;;;;;;21.83;13.07;;;9.60;75.40;;;;;;5014358;28;20447;-72
2022/11/28 11:03:17;;;;;;;17.85;13.30;;;9.50;76.90;;;;;;5014723;28;20769;-72
2022/11/28 11:05:42;;;;;;;17.10;12.30;;;9.50;76.90;;;;;;5015721;28;20796;-71
2022/11/28 11:08:17;;;;;;;20.67;13.97;;;9.40;76.10;;;;;;5014604;28;20389;-73
2022/11/28 11:10:51;;;;;;;19.70;13.38;;;9.50;80.50;;;;;;5013765;28;20451;-71
2022/11/28 11:13:26;;;;;;;21.65;13.50;;;9.50;76.90;;;;;;5014315;28;20381;-72
2022/11/28 11:16:06;;;;;;;18.52;12.93;;;9.40;79.40;;;;;;5028922;28;20484;-72
2022/11/28 11:18:53;;;;;;;21.55;13.80;;;9.30;80.20;;;;;;5013734;28;20404;-71
2022/11/28 11:21:21;;;;;;;17.85;13.80;;;9.30;83.60;;;;;;5014158;28;20392;-73
2022/11/28 11:24:07;;;;;;;17.65;12.88;;;9.30;82.90;;;;;;5014242;28;20769;-72
2022/11/28 11:26:39;;;;;;;22.67;13.25;;;9.30;82.80;;;;;;5013637;28;20492;-70
2022/11/28 11:29:05;;;;;;;22.55;13.90;;;9.30;80.80;;;;;;5013708;28;20483;-72
2022/11/28 11:31:41;;;;;;;20.17;13.70;;;9.20;81.20;;;;;;5013107;28;20754;-72
2022/11/28 11:34:18;;;;;;;19.65;13.80;;;9.10;82.70;;;;;;5013594;28;20773;-71
2022/11/28 11:36:44;;;;;;;18.63;13.30;;;9.20;85.50;;;;;;5013901;28;20381;-71
2022/11/28 11:39:10;;;;;;;25.70;14.65;;;9.10;87.70;;;;;;5013642;28;20405;-73
2022/11/28 11:41:37;;;;;;;21.35;14.07;;;9.10;89.90;;;;;;5012125;28;20976;-73
2022/11/28 11:44:19;;;;;;;20.98;14.18;;;9.00;89.70;;;;;;5014187;28;20476;-73
2022/11/28 11:46:56;;;;;;;19.67;14.15;;;8.90;91.50;;;;;;5014077;28;20389;-72
2022/11/28 11:49:27;;;;;;;22.13;15.32;;;8.90;93.80;;;;;;5020575;28;20436;-72
2022/11/28 11:51:57;;;;;;;27.33;15.35;;;8.90;96.00;;;;;;5022069;28;20460;-71
2022/11/28 11:54:23;;;;;;;20.95;14.85;;;8.90;97.10;;;;;;5019802;28;20411;-72
2022/11/28 11:56:49;;;;;;;20.83;15.52;;;8.90;98.00;;;;;;5018992;28;20393;-72
2022/11/28 11:59:21;;;;;;;22.17;14.68;;;8.90;97.50;;;;;;5019712;28;20411;-71
2022/11/28 12:01:50;;;;;;;23.42;16.50;;;8.90;96.20;;;;;;5019054;28;20392;-72
2022/11/28 12:04:22;;;;;;;25.80;15.90;;;8.90;98.00;;;;;;5014918;28;20396;-72
2022/11/28 12:06:50;;;;;;;23.23;16.10;;;8.90;97.50;;;;;;5022230;28;20399;-72
2022/11/28 12:09:22;;;;;;;22.45;15.68;;;8.80;98.80;;;;;;5028088;28;20407;-69
2022/11/28 12:12:10;;;;;;;24.38;15.10;;;8.70;99.90;;;;;;5026513;28;20397;-73
2022/11/28 12:14:39;;;;;;;22.27;15.70;;;8.80;98.90;;;;;;5025363;28;20753;-72
2022/11/28 12:17:29;;;;;;;27.58;17.10;;;8.80;99.90;;;;;;5015889;28;20808;-72
2022/11/28 12:20:25;;;;;;;24.60;16.10;;;8.80;99.90;;;;;;5011227;28;20436;-69
2022/11/28 12:22:53;;;;;;;22.27;15.30;;;8.70;99.90;;;;;;5013246;28;20468;-71
2022/11/28 12:25:38;;;;;;;25.20;16.85;;;8.70;99.90;;;;;;5013713;28;20384;-73
2022/11/28 12:28:18;;;;;;;25.73;17.20;;;8.70;99.90;;;;;;5013389;28;20397;-72
2022/11/28 12:31:07;;;;;;;28.48;17.92;;;8.70;99.90;;;;;;5013523;28;20443;-71
2022/11/28 12:33:56;;;;;;;26.40;17.83;;;8.70;99.90;;;;;;5012832;28;20391;-71
2022/11/28 12:36:29;;;;;;;25.02;16.33;;;8.70;99.90;;;;;;5012322;28;20393;-72
2022/11/28 12:39:01;;;;;;;25.33;16.88;;;8.70;99.90;;;;;;5010957;28;20793;-72
2022/11/28 12:41:46;;;;;;;23.77;17.50;;;8.70;99.90;;;;;;5011914;28;20381;-71
2022/11/28 12:44:11;;;;;;;28.25;17.80;;;8.70;99.90;;;;;;5010344;28;20389;-72
2022/11/28 12:46:56;;;;;;;27.13;16.60;;;8.70;99.90;;;;;;5011527;28;20781;-73
2022/11/28 12:49:59;;;;;;;27.10;16.27;;;8.80;99.90;;;;;;5011895;28;20476;-72
2022/11/28 12:52:36;;;;;;;22.40;15.48;;;8.90;99.90;;;;;;5005746;28;20510;-71
2022/11/28 12:55:21;;;;;;;23.52;15.20;;;9.00;99.90;;;;;;5011793;28;20808;-70
2022/11/28 12:58:01;;;;;;;25.50;16.60;;;8.90;99.90;;;;;;5011325;28;20389;-72
2022/11/28 13:00:28;;;;;;;27.17;16.00;;;8.90;99.90;;;;;;5011710;28;20454;-72
2022/11/28 13:03:27;;;;;;;24.77;15.65;;;8.90;99.90;;;;;;5026005;28;20396;-70